| time (UTC) | temp C | wind direction | speed KPH | gust KPH | rain 1hr cm | rain 24hr cm | rain mn cm | humidity % | barometer mb |
| 20260510094518 | 16 | 64 | 17.7 | 30.6 | 0.00 | 0.00 | 0.00 | 61 | 1007.9 |
| 20260510093016 | 16 | 51 | 27.4 | 33.8 | 0.00 | 0.00 | 0.00 | 61 | 1008.0 |
| 20260510091513 | 16 | 24 | 27.4 | 35.4 | 0.00 | 0.00 | 0.00 | 61 | 1007.9 |
| 20260510090010 | 16 | 25 | 24.1 | 38.6 | 0.00 | 0.00 | 0.00 | 61 | 1007.4 |
| 20260510084510 | 17 | 48 | 25.7 | 32.2 | 0.00 | 0.00 | 0.00 | 59 | 1007.1 |
| 20260510083108 | 18 | 42 | 24.1 | 29.0 | 0.00 | 0.00 | 0.00 | 56 | 1007.0 |
| 20260510081556 | 18 | 61 | 19.3 | 29.0 | 0.00 | 0.00 | 0.00 | 54 | 1007.0 |
| 20260510080059 | 19 | 40 | 19.3 | 30.6 | 0.00 | 0.00 | 0.00 | 53 | 1007.1 |
| 20260510074602 | 20 | 28 | 20.9 | 30.6 | 0.00 | 0.00 | 0.00 | 52 | 1007.1 |
| 20260510073048 | 20 | 49 | 14.5 | 17.7 | 0.00 | 0.00 | 0.00 | 51 | 1007.0 |
| 20260510071554 | 20 | 205 | 0.0 | 4.8 | 0.00 | 0.00 | 0.00 | 49 | 1006.7 |
| 20260510070042 | 21 | 307 | 11.3 | 16.1 | 0.00 | 0.00 | 0.00 | 49 | 1007.3 |
| 20260510064554 | 21 | 5 | 12.9 | 22.5 | 0.00 | 0.00 | 0.00 | 48 | 1007.3 |
| 20260510063037 | 21 | 26 | 9.7 | 25.7 | 0.00 | 0.00 | 0.00 | 47 | 1007.0 |
| 20260510061537 | 21 | 21 | 12.9 | 16.1 | 0.00 | 0.00 | 0.00 | 46 | 1006.8 |
| 20260510060034 | 21 | 18 | 6.4 | 9.7 | 0.00 | 0.00 | 0.00 | 47 | 1006.4 |
| 20260510054627 | 21 | 94 | 4.8 | 9.7 | 0.00 | 0.00 | 0.00 | 45 | 1005.9 |
| 20260510053025 | 21 | 97 | 6.4 | 25.7 | 0.00 | 0.00 | 0.00 | 45 | 1005.7 |
| 20260510051528 | 21 | 75 | 6.4 | 14.5 | 0.00 | 0.00 | 0.00 | 44 | 1005.4 |
| 20260510050018 | 22 | 25 | 12.9 | 17.7 | 0.00 | 0.00 | 0.00 | 41 | 1005.0 |
| 20260510044521 | 22 | 21 | 16.1 | 20.9 | 0.00 | 0.00 | 0.00 | 36 | 1005.0 |
| 20260510043008 | 23 | 14 | 16.1 | 20.9 | 0.00 | 0.00 | 0.00 | 27 | 1004.9 |
| 20260510041503 | 25 | 26 | 16.1 | 19.3 | 0.00 | 0.00 | 0.00 | 17 | 1004.9 |
| 20260510040100 | 26 | 56 | 9.7 | 17.7 | 0.00 | 0.00 | 0.00 | 13 | 1005.1 |
| 20260510034555 | 28 | 51 | 14.5 | 25.7 | 0.00 | 0.00 | 0.00 | 2 | 1005.4 |
| 20260510033050 | 25 | 293 | 16.1 | 25.7 | 0.00 | 0.00 | 0.00 | 1 | 1005.7 |
| 20260510031546 | 23 | 235 | 4.8 | 9.7 | 0.00 | 0.00 | 0.00 | 2 | 1004.8 |
| 20260510030048 | 24 | 174 | 9.7 | 12.9 | 0.00 | 0.00 | 0.00 | 1 | 1004.5 |
| 20260510024549 | 27 | 289 | 3.2 | 8.0 | 0.00 | 0.00 | 0.00 | 1 | 1004.1 |
| 20260510023033 | 28 | 306 | 4.8 | 8.0 | 0.00 | 0.00 | 0.00 | 1 | 1003.8 |
| 20260510021533 | 29 | 327 | 6.4 | 9.7 | 0.00 | 0.00 | 0.00 | 1 | 1003.6 |
| 20260510020030 | 30 | 327 | 9.7 | 16.1 | 0.00 | 0.00 | 0.00 | 1 | 1003.4 |
| 20260510014529 | 30 | 325 | 14.5 | 16.1 | 0.00 | 0.00 | 0.00 | 1 | 1003.3 |
| 20260510013023 | 30 | 326 | 11.3 | 14.5 | 0.00 | 0.00 | 0.00 | 1 | 1003.2 |
| 20260510011531 | 30 | 311 | 11.3 | 14.5 | 0.00 | 0.00 | 0.00 | 1 | 1003.1 |
| 20260510010014 | 32 | 302 | 14.5 | 22.5 | 0.00 | 0.00 | 0.00 | 1 | 1003.0 |
| 20260510004509 | 33 | 298 | 14.5 | 27.4 | 0.00 | 0.00 | 0.00 | 1 | 1002.9 |
| 20260510003005 | 33 | 266 | 22.5 | 30.6 | 0.00 | 0.00 | 0.00 | 1 | 1002.9 |
| 20260510001501 | 33 | 288 | 25.7 | 51.5 | 0.00 | 0.00 | 0.00 | 1 | 1002.7 |
| 20260510000117 | 33 | 284 | 25.7 | 41.8 | 0.00 | 0.00 | 0.00 | 1 | 1002.8 |
| 20260509234603 | 34 | 250 | 24.1 | 40.2 | 0.00 | 0.00 | 0.00 | 1 | 1002.8 |
| 20260509233047 | 34 | 264 | 25.7 | 40.2 | 0.00 | 0.00 | 0.00 | 1 | 1002.9 |
| 20260509231543 | 34 | 265 | 22.5 | 51.5 | 0.00 | 0.00 | 0.00 | 1 | 1002.9 |
| 20260509230039 | 35 | 307 | 27.4 | 51.5 | 0.00 | 0.00 | 0.00 | 1 | 1002.8 |
| 20260509224534 | 34 | 288 | 27.4 | 53.1 | 0.00 | 0.00 | 0.00 | 1 | 1003.2 |
| 20260509223030 | 34 | 262 | 20.9 | 40.2 | 0.00 | 0.00 | 0.00 | 1 | 1003.3 |
| 20260509221537 | 33 | 252 | 25.7 | 48.3 | 0.00 | 0.00 | 0.00 | 1 | 1003.5 |
| 20260509220021 | 33 | 246 | 22.5 | 37.0 | 0.00 | 0.00 | 0.00 | 1 | 1003.4 |
| 20260509214517 | 33 | 178 | 25.7 | 46.7 | 0.00 | 0.00 | 0.00 | 1 | 1003.7 |
| 20260509213012 | 33 | 190 | 12.9 | 40.2 | 0.00 | 0.00 | 0.00 | 1 | 1003.7 |
| 20260509211508 | 33 | 248 | 24.1 | 48.3 | 0.00 | 0.00 | 0.00 | 1 | 1004.0 |
| 20260509210004 | 33 | 194 | 43.5 | 59.5 | 0.00 | 0.00 | 0.00 | 1 | 1004.1 |
| 20260509204602 | 33 | 223 | 43.5 | 59.5 | 0.00 | 0.00 | 0.00 | 1 | 1004.6 |
| 20260509203058 | 33 | 184 | 33.8 | 54.7 | 0.00 | 0.00 | 0.00 | 1 | 1005.4 |
| 20260509201550 | 33 | 242 | 41.8 | 59.5 | 0.00 | 0.00 | 0.00 | 2 | 1005.3 |
| 20260509200046 | 32 | 199 | 33.8 | 61.2 | 0.00 | 0.00 | 0.00 | 3 | 1005.9 |
| 20260509194541 | 32 | 248 | 25.7 | 37.0 | 0.00 | 0.00 | 0.00 | 3 | 1006.1 |
| 20260509193045 | 32 | 241 | 22.5 | 51.5 | 0.00 | 0.00 | 0.00 | 5 | 1006.5 |
| 20260509191552 | 31 | 215 | 22.5 | 56.3 | 0.00 | 0.00 | 0.00 | 5 | 1006.6 |
| 20260509190045 | 31 | 159 | 29.0 | 59.5 | 0.00 | 0.00 | 0.00 | 6 | 1006.7 |
| 20260509184536 | 31 | 184 | 29.0 | 46.7 | 0.00 | 0.00 | 0.00 | 7 | 1007.2 |
| 20260509183038 | 31 | 213 | 27.4 | 56.3 | 0.00 | 0.00 | 0.00 | 8 | 1007.3 |
| 20260509181527 | 30 | 244 | 19.3 | 45.1 | 0.00 | 0.00 | 0.00 | 9 | 1007.7 |
| 20260509180023 | 30 | 269 | 22.5 | 45.1 | 0.00 | 0.00 | 0.00 | 10 | 1008.1 |
| 20260509174523 | 29 | 203 | 22.5 | 43.5 | 0.00 | 0.00 | 0.00 | 13 | 1008.4 |
| 20260509173017 | 28 | 184 | 32.2 | 40.2 | 0.00 | 0.00 | 0.00 | 14 | 1008.5 |
| 20260509171512 | 28 | 191 | 22.5 | 46.7 | 0.00 | 0.00 | 0.00 | 17 | 1008.6 |
| 20260509170016 | 27 | 244 | 20.9 | 38.6 | 0.00 | 0.00 | 0.00 | 22 | 1008.8 |
| 20260509164506 | 27 | 175 | 27.4 | 46.7 | 0.00 | 0.00 | 0.00 | 25 | 1008.9 |
| 20260509163003 | 26 | 196 | 24.1 | 37.0 | 0.00 | 0.00 | 0.00 | 31 | 1009.2 |
| 20260509161501 | 25 | 161 | 27.4 | 35.4 | 0.00 | 0.00 | 0.00 | 33 | 1009.3 |
| 20260509160059 | 24 | 178 | 22.5 | 33.8 | 0.00 | 0.00 | 0.00 | 37 | 1009.3 |
| 20260509154558 | 23 | 178 | 20.9 | 30.6 | 0.00 | 0.00 | 0.00 | 40 | 1009.1 |
| 20260509153053 | 23 | 173 | 16.1 | 25.7 | 0.00 | 0.00 | 0.00 | 44 | 1009.3 |
| 20260509151552 | 22 | 167 | 12.9 | 20.9 | 0.00 | 0.00 | 0.00 | 53 | 1009.6 |
| 20260509150045 | 21 | 161 | 16.1 | 27.4 | 0.00 | 0.00 | 0.00 | 56 | 1009.7 |
| 20260509144547 | 20 | 180 | 14.5 | 19.3 | 0.00 | 0.00 | 0.00 | 64 | 1009.7 |
| 20260509143040 | 17 | 164 | 9.7 | 17.7 | 0.00 | 0.00 | 0.00 | 72 | 1009.9 |
| 20260509141545 | 16 | 197 | 11.3 | 20.9 | 0.00 | 0.00 | 0.00 | 74 | 1010.0 |
| 20260509140038 | 15 | 155 | 16.1 | 22.5 | 0.00 | 0.00 | 0.00 | 74 | 1010.3 |
| 20260509134549 | 15 | 185 | 11.3 | 19.3 | 0.00 | 0.00 | 0.00 | 74 | 1010.1 |
| 20260509133037 | 15 | 185 | 11.3 | 17.7 | 0.00 | 0.00 | 0.00 | 73 | 1010.0 |
| 20260509131552 | 15 | 174 | 16.1 | 24.1 | 0.00 | 0.00 | 0.00 | 73 | 1010.0 |
| 20260509130046 | 15 | 174 | 14.5 | 24.1 | 0.00 | 0.00 | 0.00 | 73 | 1009.7 |
| 20260509124539 | 15 | 167 | 14.5 | 22.5 | 0.00 | 0.00 | 0.00 | 72 | 1009.6 |
| 20260509123032 | 14 | 179 | 14.5 | 22.5 | 0.00 | 0.00 | 0.00 | 71 | 1009.5 |
| 20260509121531 | 13 | 163 | 11.3 | 17.7 | 0.00 | 0.00 | 0.00 | 70 | 1009.2 |
| 20260509120027 | 12 | 177 | 14.5 | 19.3 | 0.00 | 0.00 | 0.00 | 67 | 1009.3 |
| 20260509114524 | 13 | 162 | 12.9 | 16.1 | 0.00 | 0.00 | 0.00 | 66 | 1009.2 |
| 20260509113021 | 13 | 153 | 11.3 | 14.5 | 0.00 | 0.00 | 0.00 | 63 | 1009.1 |
| 20260509111519 | 13 | 155 | 11.3 | 12.9 | 0.00 | 0.00 | 0.00 | 63 | 1009.1 |
| 20260509110023 | 13 | 157 | 12.9 | 14.5 | 0.00 | 0.00 | 0.00 | 62 | 1009.1 |
| 20260509104516 | 13 | 154 | 11.3 | 12.9 | 0.00 | 0.00 | 0.00 | 61 | 1009.1 |
| 20260509103013 | 14 | 157 | 11.3 | 14.5 | 0.00 | 0.00 | 0.00 | 61 | 1009.2 |
| 20260509101519 | 15 | 134 | 11.3 | 12.9 | 0.00 | 0.00 | 0.00 | 61 | 1009.3 |
| 20260509100010 | 14 | 148 | 12.9 | 16.1 | 0.00 | 0.00 | 0.00 | 60 | 1009.5 |